Time;durP1;ratioP1;P1;durP2;ratioP2;P2;SDS_P1;SDS_P2;PMS_P1;PMS_P2;Temp;Humidity;BMP_temperature;BMP_pressure;BME280_temperature;BME280_humidity;BME280_pressure;Samples;Min_cycle;Max_cycle;Signal;HPM_P1;HPM_P2
2021/12/13 00:02:15;;;;;;;25.23;15.03;;;6.60;99.90;;;;;;4977083;28;20187;-96
2021/12/13 00:04:58;;;;;;;22.73;14.23;;;6.70;99.90;;;;;;4954734;28;20191;-95
2021/12/13 00:07:28;;;;;;;21.33;14.27;;;6.60;99.90;;;;;;4976914;28;20183;-96
2021/12/13 00:09:57;;;;;;;24.57;13.97;;;6.70;99.90;;;;;;4976103;28;20212;-96
2021/12/13 00:12:34;;;;;;;25.07;14.93;;;6.60;99.90;;;;;;4976779;28;20192;-96
2021/12/13 00:15:03;;;;;;;28.13;15.77;;;6.70;99.90;;;;;;4977794;28;20207;-96
2021/12/13 00:17:44;;;;;;;26.40;14.50;;;6.70;99.90;;;;;;4977440;28;20276;-96
2021/12/13 00:20:16;;;;;;;23.97;14.90;;;6.80;99.90;;;;;;4979095;28;20231;-95
2021/12/13 00:22:46;;;;;;;25.77;15.50;;;6.80;99.90;;;;;;4977089;28;20177;-95
2021/12/13 00:25:19;;;;;;;25.90;14.87;;;6.80;99.90;;;;;;4976847;28;20556;-96
2021/12/13 00:27:59;;;;;;;24.03;15.30;;;6.80;99.90;;;;;;4977555;28;20188;-96
2021/12/13 00:30:53;;;;;;;26.50;15.53;;;6.80;99.90;;;;;;4977518;28;20184;-95
2021/12/13 00:33:54;;;;;;;27.17;15.37;;;6.80;99.90;;;;;;4977116;28;20176;-96
2021/12/13 00:36:33;;;;;;;26.23;15.77;;;6.80;99.90;;;;;;4977056;28;20175;-96
2021/12/13 00:39:25;;;;;;;27.40;15.90;;;6.80;99.90;;;;;;4977064;28;20203;-96
2021/12/13 00:41:54;;;;;;;27.40;16.00;;;6.90;99.90;;;;;;4947917;28;20224;-95
2021/12/13 00:44:37;;;;;;;29.40;15.53;;;6.80;99.90;;;;;;4957106;29;20181;-95
2021/12/13 00:47:07;;;;;;;23.80;14.67;;;6.90;99.90;;;;;;4957321;29;20193;-95
2021/12/13 00:49:38;;;;;;;22.70;14.90;;;6.90;99.90;;;;;;4957067;29;20208;-96
2021/12/13 00:52:04;;;;;;;25.07;15.00;;;6.90;99.90;;;;;;4955993;28;20184;-96
2021/12/13 00:54:40;;;;;;;23.30;15.07;;;7.00;99.90;;;;;;4957690;29;20564;-95
2021/12/13 00:57:30;;;;;;;27.57;15.17;;;7.00;99.90;;;;;;4957398;29;20256;-96
2021/12/13 01:00:08;;;;;;;25.07;13.83;;;7.00;99.90;;;;;;4956724;29;20225;-95
2021/12/13 01:02:46;;;;;;;25.87;14.33;;;6.90;99.90;;;;;;4957183;29;20177;-95
2021/12/13 01:05:24;;;;;;;22.47;14.20;;;7.00;99.90;;;;;;4957720;29;20646;-95
2021/12/13 01:08:14;;;;;;;28.10;15.57;;;7.00;99.90;;;;;;4957197;29;20184;-94
2021/12/13 01:10:40;;;;;;;23.87;15.13;;;7.00;99.90;;;;;;4960997;28;20259;-96
2021/12/13 01:13:15;;;;;;;23.67;14.23;;;7.10;99.90;;;;;;4976822;28;20177;-96
2021/12/13 01:15:55;;;;;;;26.33;15.13;;;7.10;99.90;;;;;;4976200;28;20179;-96
2021/12/13 01:18:56;;;;;;;25.67;15.13;;;7.10;99.90;;;;;;4975847;28;20178;-95
2021/12/13 01:21:40;;;;;;;27.03;14.33;;;7.10;99.90;;;;;;4976302;28;20195;-96
2021/12/13 01:24:12;;;;;;;28.90;14.60;;;7.20;99.90;;;;;;4976438;28;20173;-95
2021/12/13 01:26:46;;;;;;;24.87;14.43;;;7.20;99.90;;;;;;4975659;28;20275;-95
2021/12/13 01:29:18;;;;;;;30.70;15.63;;;7.20;99.90;;;;;;4976028;28;20212;-95
2021/12/13 01:32:00;;;;;;;27.97;15.87;;;7.20;99.90;;;;;;4976837;28;20200;-95
2021/12/13 01:34:30;;;;;;;26.30;15.23;;;7.20;99.90;;;;;;4975946;28;20176;-95
2021/12/13 01:37:07;;;;;;;28.27;15.00;;;7.20;99.90;;;;;;4975773;28;20177;-96
2021/12/13 01:39:35;;;;;;;27.80;15.30;;;7.20;99.90;;;;;;4975845;28;20639;-93
2021/12/13 01:42:11;;;;;;;30.07;15.97;;;7.20;99.90;;;;;;4975725;28;20327;-95
2021/12/13 01:44:43;;;;;;;28.13;15.33;;;7.30;99.90;;;;;;4976288;28;20173;-95
2021/12/13 01:47:16;;;;;;;28.20;14.83;;;7.30;99.90;;;;;;4976153;28;20596;-95
2021/12/13 01:49:47;;;;;;;28.40;14.60;;;7.30;99.90;;;;;;4975024;28;20290;-96
2021/12/13 01:52:37;;;;;;;30.17;16.30;;;7.30;99.90;;;;;;4976007;28;20169;-95
2021/12/13 01:55:14;;;;;;;32.90;16.47;;;7.30;99.90;;;;;;4975186;28;20196;-95
2021/12/13 01:57:48;;;;;;;29.80;16.10;;;7.30;99.90;;;;;;4975313;28;20258;-95
2021/12/13 02:00:43;;;;;;;32.33;16.03;;;7.30;99.90;;;;;;4976138;28;20224;-96
2021/12/13 02:03:09;;;;;;;26.57;14.70;;;7.30;99.90;;;;;;4976289;28;20577;-95
2021/12/13 02:05:35;;;;;;;30.73;15.57;;;7.40;99.90;;;;;;4979599;28;20184;-95
2021/12/13 02:08:12;;;;;;;28.33;15.50;;;7.30;99.90;;;;;;4979823;28;20728;-95
2021/12/13 02:10:37;;;;;;;29.43;16.40;;;7.30;99.90;;;;;;4979733;28;20755;-95
2021/12/13 02:13:16;;;;;;;37.93;16.47;;;7.30;99.90;;;;;;4979986;28;20192;-95
2021/12/13 02:18:35;;;;;;;30.20;16.37;;;7.30;99.90;;;;;;4981810;28;20184;-95
2021/12/13 02:21:07;;;;;;;32.20;16.33;;;7.40;99.90;;;;;;4979549;28;20255;-95
2021/12/13 02:23:37;;;;;;;34.90;17.50;;;7.40;99.90;;;;;;4980002;28;20183;-95
2021/12/13 02:26:04;;;;;;;32.40;17.07;;;7.40;99.90;;;;;;4979975;28;20189;-95
2021/12/13 02:28:33;;;;;;;32.57;16.03;;;7.40;99.90;;;;;;4979102;28;20216;-95
2021/12/13 02:31:19;;;;;;;37.43;17.23;;;7.40;99.90;;;;;;4979917;28;20706;-94
2021/12/13 02:33:52;;;;;;;34.17;16.83;;;7.40;99.90;;;;;;4980307;28;20184;-95
2021/12/13 02:36:23;;;;;;;31.97;16.90;;;7.40;99.90;;;;;;4979453;28;20190;-94
2021/12/13 02:38:52;;;;;;;33.83;17.47;;;7.50;99.90;;;;;;4979454;28;20173;-95
2021/12/13 02:41:22;;;;;;;36.30;16.97;;;7.50;99.90;;;;;;4980657;28;20185;-95
2021/12/13 02:43:53;;;;;;;30.60;16.67;;;7.50;99.90;;;;;;4979234;28;20180;-96
2021/12/13 02:46:19;;;;;;;27.93;15.67;;;7.50;99.90;;;;;;4979267;28;20168;-96
2021/12/13 02:48:52;;;;;;;32.87;15.43;;;7.50;99.90;;;;;;4978857;28;20220;-95
2021/12/13 02:51:31;;;;;;;32.33;16.67;;;7.50;99.90;;;;;;4978707;28;20251;-96
2021/12/13 02:53:59;;;;;;;29.83;16.17;;;7.40;99.90;;;;;;4978982;28;20770;-95
2021/12/13 02:56:30;;;;;;;30.77;16.40;;;7.50;99.90;;;;;;4978231;28;20184;-95
2021/12/13 02:59:00;;;;;;;32.20;16.53;;;7.50;99.90;;;;;;4978304;28;20228;-95
2021/12/13 03:01:55;;;;;;;35.13;16.53;;;7.60;99.90;;;;;;4979246;28;20276;-96
2021/12/13 03:04:24;;;;;;;29.00;15.70;;;7.60;99.90;;;;;;4978610;28;20271;-94
2021/12/13 03:06:55;;;;;;;20.60;13.87;;;7.50;99.90;;;;;;4978423;28;20573;-96
2021/12/13 03:09:24;;;;;;;25.23;14.60;;;7.50;99.90;;;;;;4977962;28;20208;-95
2021/12/13 03:11:52;;;;;;;26.73;15.07;;;7.50;99.90;;;;;;4977933;28;20223;-95
2021/12/13 03:14:29;;;;;;;29.07;15.30;;;7.50;99.90;;;;;;4978766;28;20199;-95
2021/12/13 03:17:05;;;;;;;29.63;15.57;;;7.50;99.90;;;;;;4978704;28;20176;-95
2021/12/13 03:19:40;;;;;;;27.70;15.63;;;7.40;99.90;;;;;;4978921;28;20611;-95
2021/12/13 03:22:20;;;;;;;28.07;15.20;;;7.40;99.90;;;;;;4978772;28;20612;-95
2021/12/13 03:25:31;;;;;;;24.07;14.67;;;7.40;99.90;;;;;;4978833;28;20181;-95
2021/12/13 03:28:40;;;;;;;23.50;13.50;;;7.40;99.90;;;;;;4946984;28;20192;-95
2021/12/13 03:31:08;;;;;;;25.43;13.97;;;7.40;99.90;;;;;;4936674;28;20635;-95
2021/12/13 03:33:47;;;;;;;21.33;12.40;;;7.40;99.90;;;;;;4979425;28;20183;-96
2021/12/13 03:36:18;;;;;;;22.90;13.40;;;7.50;99.90;;;;;;4980222;28;20176;-95
2021/12/13 03:38:48;;;;;;;27.97;13.80;;;7.50;99.90;;;;;;4980622;28;20180;-94
2021/12/13 03:41:19;;;;;;;24.63;13.43;;;7.60;99.90;;;;;;4979323;28;20189;-96
2021/12/13 03:43:49;;;;;;;23.47;12.90;;;7.60;99.90;;;;;;4981989;28;20604;-96
2021/12/13 03:46:18;;;;;;;28.07;13.60;;;7.60;99.90;;;;;;4982458;28;20627;-96
2021/12/13 03:48:46;;;;;;;24.80;13.03;;;7.60;99.90;;;;;;4980596;28;20227;-95
2021/12/13 03:51:16;;;;;;;28.40;13.30;;;7.70;99.90;;;;;;4980259;28;20173;-96
2021/12/13 03:53:46;;;;;;;29.90;13.67;;;7.70;99.90;;;;;;4982741;28;20177;-95
2021/12/13 03:56:15;;;;;;;29.87;13.97;;;7.70;99.90;;;;;;4986770;28;20364;-96
2021/12/13 03:58:51;;;;;;;31.40;14.73;;;7.70;99.90;;;;;;5390465;23;20200;-94
2021/12/13 04:01:25;;;;;;;34.57;15.73;;;7.70;99.90;;;;;;4955754;29;20304;-94
2021/12/13 04:03:56;;;;;;;37.93;15.67;;;7.80;99.90;;;;;;4973137;28;20188;-94
2021/12/13 04:06:22;;;;;;;40.23;17.27;;;7.80;99.90;;;;;;4966762;28;20196;-94
2021/12/13 04:08:55;;;;;;;39.50;16.67;;;7.80;99.90;;;;;;4953510;29;20216;-94
2021/12/13 04:11:23;;;;;;;41.97;17.30;;;7.90;99.90;;;;;;4953923;29;20184;-94
2021/12/13 04:14:00;;;;;;;49.03;19.17;;;7.90;99.90;;;;;;4956320;29;20188;-95
2021/12/13 04:16:49;;;;;;;45.87;18.47;;;7.90;99.90;;;;;;4969355;28;20208;-94
2021/12/13 04:19:21;;;;;;;41.60;18.33;;;7.90;99.90;;;;;;4956545;29;20213;-93
2021/12/13 04:21:52;;;;;;;46.30;18.60;;;7.90;99.90;;;;;;4956832;29;20181;-94
2021/12/13 04:24:20;;;;;;;45.57;18.77;;;7.90;99.90;;;;;;4957197;29;20209;-95
2021/12/13 04:26:51;;;;;;;54.47;20.50;;;7.90;99.90;;;;;;4955964;28;20245;-95
2021/12/13 04:29:21;;;;;;;51.93;19.27;;;8.00;99.90;;;;;;4956505;29;20593;-96
2021/12/13 04:31:49;;;;;;;47.23;18.50;;;8.00;99.90;;;;;;4957370;29;20193;-96
2021/12/13 04:34:15;;;;;;;49.40;19.17;;;8.00;99.90;;;;;;4956956;29;20177;-96
2021/12/13 04:36:46;;;;;;;51.30;19.47;;;8.00;99.90;;;;;;4957232;29;20177;-96
2021/12/13 04:39:31;;;;;;;54.63;19.03;;;8.00;99.90;;;;;;4956222;29;20193;-96
2021/12/13 04:42:00;;;;;;;53.80;19.67;;;8.00;99.90;;;;;;4957299;29;20172;-96
2021/12/13 04:44:34;;;;;;;61.57;20.90;;;8.00;99.90;;;;;;4958603;29;20193;-96
2021/12/13 04:47:07;;;;;;;64.63;22.40;;;8.10;99.90;;;;;;4957751;29;20192;-96
2021/12/13 04:49:36;;;;;;;70.47;23.97;;;8.00;99.90;;;;;;4963347;28;20209;-95
2021/12/13 04:52:08;;;;;;;66.77;22.23;;;8.10;99.90;;;;;;4957726;29;20620;-96
2021/12/13 04:54:36;;;;;;;67.93;24.07;;;8.10;99.90;;;;;;4957407;29;20213;-96
2021/12/13 04:57:04;;;;;;;81.17;24.93;;;8.10;99.90;;;;;;4952439;29;20279;-94
2021/12/13 04:59:31;;;;;;;75.73;24.07;;;8.10;99.90;;;;;;4937217;29;20229;-95
2021/12/13 05:02:01;;;;;;;80.07;24.83;;;8.20;99.90;;;;;;4939182;29;20613;-95
2021/12/13 05:04:29;;;;;;;75.33;24.77;;;8.20;99.90;;;;;;4958104;29;20266;-96
2021/12/13 05:07:00;;;;;;;79.67;24.40;;;8.10;99.90;;;;;;4957335;29;20178;-96
2021/12/13 05:09:28;;;;;;;80.20;25.73;;;8.20;99.90;;;;;;4964077;28;20213;-96
2021/12/13 05:11:56;;;;;;;84.37;26.40;;;8.20;99.90;;;;;;4957491;29;20185;-95
2021/12/13 05:14:37;;;;;;;90.20;27.10;;;8.20;99.90;;;;;;4955759;29;20217;-95
2021/12/13 05:17:15;;;;;;;93.47;28.00;;;8.20;99.90;;;;;;4956389;29;20185;-94
2021/12/13 05:19:46;;;;;;;91.07;27.47;;;8.20;99.90;;;;;;4955978;29;20177;-94
2021/12/13 05:22:16;;;;;;;87.93;26.33;;;8.20;99.90;;;;;;4964658;28;20208;-94
2021/12/13 05:24:47;;;;;;;96.10;28.87;;;8.20;99.90;;;;;;4956351;29;20264;-94
2021/12/13 05:27:23;;;;;;;86.63;26.40;;;8.20;99.90;;;;;;4956500;29;20173;-94
2021/12/13 05:29:50;;;;;;;92.70;27.73;;;8.20;99.90;;;;;;4955646;29;20216;-96
2021/12/13 05:32:33;;;;;;;98.27;27.50;;;8.20;99.90;;;;;;4956384;29;20177;-95
2021/12/13 05:35:08;;;;;;;99.87;27.60;;;8.20;99.90;;;;;;4960502;28;20235;-95
2021/12/13 05:37:47;;;;;;;94.00;29.23;;;8.20;99.90;;;;;;4955872;28;20185;-95
2021/12/13 05:40:20;;;;;;;100.53;27.63;;;8.20;99.90;;;;;;4958391;29;20188;-93
2021/12/13 05:42:59;;;;;;;105.67;29.90;;;8.20;99.90;;;;;;4940924;29;20218;-94
2021/12/13 05:45:39;;;;;;;107.20;29.17;;;8.20;99.90;;;;;;4941574;29;20177;-94
2021/12/13 05:48:35;;;;;;;104.67;29.30;;;8.30;99.90;;;;;;4941133;29;20210;-94
2021/12/13 05:51:05;;;;;;;97.13;27.10;;;8.30;99.90;;;;;;4949612;29;20292;-95
2021/12/13 05:53:37;;;;;;;103.53;28.20;;;8.30;99.90;;;;;;4941130;29;20619;-94
2021/12/13 05:56:13;;;;;;;100.20;29.23;;;8.30;99.90;;;;;;4940908;29;20212;-95
2021/12/13 05:58:42;;;;;;;95.83;28.27;;;8.30;99.90;;;;;;4940502;29;20197;-95
2021/12/13 06:01:16;;;;;;;90.97;27.20;;;8.30;99.90;;;;;;4940712;29;20185;-95
2021/12/13 06:03:50;;;;;;;94.37;26.97;;;8.30;99.90;;;;;;4940469;29;20212;-95
2021/12/13 06:06:22;;;;;;;84.40;25.47;;;8.30;99.90;;;;;;4940935;29;20761;-95
2021/12/13 06:08:53;;;;;;;93.65;26.42;;;8.30;99.90;;;;;;4940716;29;20243;-94
2021/12/13 06:11:34;;;;;;;92.30;27.27;;;8.30;99.90;;;;;;4946774;28;20189;-95
2021/12/13 06:14:04;;;;;;;92.70;26.37;;;8.30;99.90;;;;;;4940429;29;20189;-95
2021/12/13 06:16:41;;;;;;;100.20;27.60;;;8.30;99.90;;;;;;4940540;29;20218;-95
2021/12/13 06:19:32;;;;;;;104.43;27.30;;;8.30;99.90;;;;;;4940823;29;20178;-94
2021/12/13 06:22:10;;;;;;;88.35;26.88;;;8.30;99.90;;;;;;4940811;29;20174;-94
2021/12/13 06:24:40;;;;;;;81.17;25.60;;;8.30;99.90;;;;;;4944737;29;20228;-94
2021/12/13 06:27:47;;;;;;;83.60;24.53;;;8.40;99.90;;;;;;4958862;29;20173;-95
2021/12/13 06:30:27;;;;;;;75.60;24.87;;;8.40;99.90;;;;;;4946276;29;20316;-93
2021/12/13 06:32:57;;;;;;;96.30;26.87;;;8.40;99.90;;;;;;4959646;29;20260;-94
2021/12/13 06:35:39;;;;;;;82.17;25.17;;;8.40;99.90;;;;;;4959806;29;20241;-94
2021/12/13 06:38:28;;;;;;;82.50;25.33;;;8.40;99.90;;;;;;4959499;29;20228;-94
2021/12/13 06:41:03;;;;;;;90.13;26.30;;;8.40;99.90;;;;;;4958737;29;20193;-94
2021/12/13 06:44:03;;;;;;;86.50;25.43;;;8.40;99.90;;;;;;4959314;29;20169;-95
2021/12/13 06:46:55;;;;;;;93.43;25.10;;;8.40;99.90;;;;;;4938533;29;20240;-94
2021/12/13 06:49:25;;;;;;;78.97;25.00;;;8.30;99.90;;;;;;4958449;28;20213;-94
2021/12/13 06:51:59;;;;;;;84.37;26.50;;;8.30;99.90;;;;;;4959224;29;20177;-94
2021/12/13 06:54:30;;;;;;;94.23;27.20;;;8.30;99.90;;;;;;4958959;29;20177;-92
2021/12/13 06:57:01;;;;;;;83.97;25.10;;;8.30;99.90;;;;;;4958453;29;20178;-93
2021/12/13 06:59:30;;;;;;;77.37;25.13;;;8.30;99.90;;;;;;4959394;28;20240;-92
2021/12/13 07:02:21;;;;;;;83.00;25.50;;;8.40;99.90;;;;;;4958598;29;20185;-94
2021/12/13 07:04:51;;;;;;;98.60;27.10;;;8.40;99.90;;;;;;4958837;29;20169;-94
2021/12/13 07:07:20;;;;;;;88.80;25.13;;;8.30;99.90;;;;;;4958326;29;20184;-94
2021/12/13 07:09:52;;;;;;;91.23;27.43;;;8.30;99.90;;;;;;4958787;29;20209;-94
2021/12/13 07:12:20;;;;;;;81.47;25.70;;;8.30;99.90;;;;;;4958201;29;20185;-94
2021/12/13 07:14:46;;;;;;;93.47;27.27;;;8.30;99.90;;;;;;4959016;29;20232;-93
2021/12/13 07:17:39;;;;;;;83.53;26.60;;;8.30;99.90;;;;;;4958191;29;20181;-94
2021/12/13 07:20:16;;;;;;;82.47;26.40;;;8.40;99.90;;;;;;4955033;29;20219;-93
2021/12/13 07:22:42;;;;;;;84.97;26.77;;;8.40;99.90;;;;;;4958460;29;20204;-94
2021/12/13 07:25:12;;;;;;;92.03;26.50;;;8.30;99.90;;;;;;4958721;29;20178;-94
2021/12/13 07:27:45;;;;;;;92.60;27.70;;;8.40;99.90;;;;;;4957841;29;20189;-93
2021/12/13 07:30:11;;;;;;;83.37;27.17;;;8.30;99.90;;;;;;4958548;29;20209;-94
2021/12/13 07:32:57;;;;;;;82.73;26.27;;;8.40;99.90;;;;;;4957726;29;20178;-93
2021/12/13 07:35:28;;;;;;;84.33;26.57;;;8.40;99.90;;;;;;4957719;29;20174;-93
2021/12/13 07:38:22;;;;;;;87.60;27.40;;;8.40;99.90;;;;;;4958072;29;20228;-95
2021/12/13 07:40:51;;;;;;;79.67;25.83;;;8.40;99.90;;;;;;4963443;28;20288;-93
2021/12/13 07:43:27;;;;;;;108.40;27.30;;;8.40;99.90;;;;;;4957662;29;20451;-93
2021/12/13 07:46:09;;;;;;;89.55;26.65;;;8.40;99.90;;;;;;4957451;29;20184;-93
2021/12/13 07:48:54;;;;;;;86.75;26.55;;;8.40;99.90;;;;;;4958520;29;20726;-94
2021/12/13 07:51:26;;;;;;;84.50;26.50;;;8.40;99.90;;;;;;4958068;29;20170;-94
2021/12/13 07:53:59;;;;;;;88.03;26.63;;;8.50;99.90;;;;;;4957828;29;20185;-94
2021/12/13 07:56:37;;;;;;;87.83;26.57;;;8.50;99.90;;;;;;4957486;29;20174;-93
2021/12/13 07:59:09;;;;;;;88.17;27.33;;;8.50;99.90;;;;;;4957977;28;20312;-92
2021/12/13 08:01:46;;;;;;;90.30;26.80;;;8.50;99.90;;;;;;4957124;28;20284;-94
2021/12/13 08:04:22;;;;;;;86.00;26.80;;;8.50;99.90;;;;;;4957983;29;20287;-93
2021/12/13 08:06:54;;;;;;;94.90;26.73;;;8.50;99.90;;;;;;4957559;29;20216;-93
2021/12/13 08:09:24;;;;;;;78.80;25.23;;;8.50;99.90;;;;;;4957836;29;20244;-94
2021/12/13 08:11:54;;;;;;;79.47;25.53;;;8.50;99.90;;;;;;4967570;28;20185;-94
2021/12/13 08:14:41;;;;;;;78.37;25.57;;;8.50;99.90;;;;;;4958185;29;20181;-93
2021/12/13 08:17:22;;;;;;;89.67;26.07;;;8.60;99.90;;;;;;4956993;29;20185;-94
2021/12/13 08:19:58;;;;;;;80.40;25.30;;;8.60;99.90;;;;;;4957422;29;20279;-93
2021/12/13 08:22:29;;;;;;;86.17;26.83;;;8.60;99.90;;;;;;4957087;29;20611;-94
2021/12/13 08:25:00;;;;;;;84.17;25.47;;;8.60;99.90;;;;;;4957276;29;20223;-94
2021/12/13 08:27:33;;;;;;;76.80;25.75;;;8.70;99.90;;;;;;4956556;29;20173;-93
2021/12/13 08:30:13;;;;;;;82.97;26.60;;;8.70;99.90;;;;;;4957601;29;20307;-96
2021/12/13 08:33:06;;;;;;;77.30;26.13;;;8.60;99.90;;;;;;4957651;29;20177;-95
2021/12/13 08:36:03;;;;;;;80.17;25.17;;;8.70;99.90;;;;;;4957792;29;20184;-93
2021/12/13 08:39:07;;;;;;;87.13;27.20;;;8.70;99.90;;;;;;4957742;29;20699;-94
2021/12/13 08:42:11;;;;;;;76.00;27.30;;;8.70;99.90;;;;;;4944493;29;20203;-93
2021/12/13 08:44:51;;;;;;;78.37;27.30;;;8.70;99.90;;;;;;4956652;29;20185;-93
2021/12/13 08:47:24;;;;;;;91.57;29.93;;;8.80;99.90;;;;;;4957285;29;20193;-94
2021/12/13 08:49:59;;;;;;;92.37;29.80;;;8.80;99.90;;;;;;4957666;29;20205;-94
2021/12/13 08:52:34;;;;;;;87.07;29.50;;;8.80;99.90;;;;;;4957666;29;20192;-94
2021/12/13 08:55:13;;;;;;;87.00;29.60;;;8.80;99.90;;;;;;4957785;29;20536;-94
2021/12/13 08:57:55;;;;;;;89.40;29.87;;;8.80;99.90;;;;;;4957500;29;20169;-94
2021/12/13 09:00:21;;;;;;;86.43;28.20;;;8.80;99.90;;;;;;4956818;28;20225;-94
2021/12/13 09:02:58;;;;;;;84.10;29.87;;;8.80;99.90;;;;;;4957927;29;20188;-93
2021/12/13 09:05:34;;;;;;;77.33;29.27;;;8.80;99.90;;;;;;4958028;29;20178;-95
2021/12/13 09:08:11;;;;;;;83.17;30.33;;;8.80;99.90;;;;;;4956663;29;20188;-94
2021/12/13 09:10:48;;;;;;;78.77;29.30;;;8.80;99.90;;;;;;4957619;28;20197;-95
2021/12/13 09:13:18;;;;;;;78.37;28.37;;;8.80;99.90;;;;;;4956752;28;20185;-95
2021/12/13 09:15:47;;;;;;;78.27;29.30;;;8.70;99.90;;;;;;4957973;29;20189;-95
2021/12/13 09:18:21;;;;;;;61.90;26.17;;;8.70;99.90;;;;;;4958539;29;20181;-93
2021/12/13 09:20:51;;;;;;;59.33;25.80;;;8.70;99.90;;;;;;4957490;29;20666;-94
2021/12/13 09:23:27;;;;;;;63.27;27.03;;;8.70;99.90;;;;;;4958075;29;20215;-94
2021/12/13 09:26:15;;;;;;;68.40;27.27;;;8.60;99.90;;;;;;4957289;29;20626;-93
2021/12/13 09:28:49;;;;;;;66.23;25.87;;;8.60;99.90;;;;;;4957940;29;20201;-93
2021/12/13 09:31:32;;;;;;;70.60;26.77;;;8.60;99.90;;;;;;4957856;29;20176;-94
2021/12/13 09:34:08;;;;;;;70.57;27.70;;;8.60;99.90;;;;;;4958466;29;20267;-94
2021/12/13 09:36:38;;;;;;;68.70;26.33;;;8.70;99.90;;;;;;4957429;29;20185;-96
2021/12/13 09:39:18;;;;;;;76.93;27.37;;;8.70;99.90;;;;;;4956488;29;20188;-95
2021/12/13 09:41:57;;;;;;;70.60;25.73;;;8.80;99.90;;;;;;4956059;29;20188;-95
2021/12/13 09:44:40;;;;;;;73.90;26.40;;;8.90;99.90;;;;;;4956936;29;20181;-93
2021/12/13 09:47:20;;;;;;;70.10;25.50;;;8.90;99.90;;;;;;4955875;29;20526;-93
2021/12/13 09:50:12;;;;;;;67.40;25.13;;;8.90;99.90;;;;;;4955965;29;20304;-94
2021/12/13 09:52:47;;;;;;;72.40;23.93;;;8.90;99.90;;;;;;4956076;29;20180;-93
2021/12/13 09:55:18;;;;;;;56.53;23.20;;;9.00;99.90;;;;;;4956813;29;20177;-94
2021/12/13 09:57:51;;;;;;;60.50;23.67;;;9.10;99.90;;;;;;4957261;29;20267;-94
2021/12/13 10:00:29;;;;;;;72.70;25.63;;;9.00;99.90;;;;;;4957034;28;20237;-94
2021/12/13 10:03:07;;;;;;;70.57;25.73;;;9.10;99.90;;;;;;4957042;29;20200;-94
2021/12/13 10:05:38;;;;;;;76.23;27.10;;;9.10;99.90;;;;;;4957320;29;20203;-94
2021/12/13 10:08:10;;;;;;;63.17;26.03;;;9.10;99.90;;;;;;4957523;29;20201;-93
2021/12/13 10:10:44;;;;;;;59.22;24.35;;;9.10;99.90;;;;;;4957958;28;20208;-95
2021/12/13 10:13:15;;;;;;;61.28;25.35;;;9.10;99.90;;;;;;4961023;29;20252;-96
2021/12/13 10:15:47;;;;;;;63.87;24.10;;;9.10;99.90;;;;;;4960383;29;20181;-96
2021/12/13 10:18:19;;;;;;;58.07;24.57;;;9.00;99.90;;;;;;4967278;29;20192;-96
2021/12/13 10:20:52;;;;;;;57.53;24.53;;;9.10;99.90;;;;;;4970096;29;20185;-96
2021/12/13 10:23:26;;;;;;;65.07;25.83;;;9.10;99.90;;;;;;4969848;29;20157;-96
2021/12/13 10:25:54;;;;;;;55.23;23.93;;;9.10;99.90;;;;;;4973159;28;20196;-94
2021/12/13 10:28:26;;;;;;;59.92;24.25;;;9.10;99.90;;;;;;4973538;29;20245;-95
2021/12/13 10:31:02;;;;;;;55.65;23.83;;;9.20;99.90;;;;;;4975314;28;20189;-95
2021/12/13 10:33:30;;;;;;;52.90;23.07;;;9.20;99.90;;;;;;4973434;29;20231;-95
2021/12/13 10:35:57;;;;;;;57.10;24.13;;;9.20;99.90;;;;;;4963586;29;20212;-93
2021/12/13 10:38:26;;;;;;;54.65;23.35;;;9.20;99.90;;;;;;4959949;29;20185;-93
2021/12/13 10:40:56;;;;;;;52.57;23.60;;;9.30;99.90;;;;;;4959260;29;20185;-94
2021/12/13 10:43:37;;;;;;;56.10;23.65;;;9.30;99.90;;;;;;4958968;29;20231;-94
2021/12/13 10:46:10;;;;;;;48.58;23.10;;;9.30;99.90;;;;;;4959368;29;20180;-93
2021/12/13 10:48:44;;;;;;;55.30;23.33;;;9.40;99.90;;;;;;4959686;29;20372;-94
2021/12/13 10:51:55;;;;;;;57.92;23.35;;;9.40;99.90;;;;;;4959937;29;20177;-94
2021/12/13 10:54:27;;;;;;;44.35;21.35;;;9.50;99.90;;;;;;4960635;29;20173;-94
2021/12/13 10:57:28;;;;;;;46.88;21.10;;;9.50;99.90;;;;;;4959604;29;20176;-94
2021/12/13 10:59:55;;;;;;;41.67;19.55;;;9.50;99.90;;;;;;4957683;28;20220;-93
2021/12/13 11:02:31;;;;;;;47.55;21.45;;;9.50;99.90;;;;;;4960616;29;20208;-93
2021/12/13 11:05:13;;;;;;;48.92;20.73;;;9.50;99.90;;;;;;4965533;29;20201;-96
2021/12/13 11:07:42;;;;;;;43.15;21.10;;;9.50;99.90;;;;;;4967584;29;20173;-94
2021/12/13 11:10:12;;;;;;;42.33;20.80;;;9.60;99.90;;;;;;4972193;29;20280;-95
2021/12/13 11:12:44;;;;;;;38.88;20.27;;;9.60;99.90;;;;;;4970586;29;20169;-94
2021/12/13 11:15:19;;;;;;;37.85;19.27;;;9.70;99.90;;;;;;4969110;29;20212;-96
2021/12/13 11:17:46;;;;;;;39.75;19.52;;;9.70;99.90;;;;;;4970585;29;20204;-95
2021/12/13 11:20:23;;;;;;;36.13;19.65;;;9.70;99.90;;;;;;4973206;29;20212;-95
2021/12/13 11:22:50;;;;;;;32.85;19.88;;;9.60;99.90;;;;;;4978537;28;20177;-94
2021/12/13 11:25:20;;;;;;;38.28;20.50;;;9.60;99.90;;;;;;4973573;29;20189;-95
2021/12/13 11:27:47;;;;;;;34.75;20.08;;;9.60;99.90;;;;;;4970385;29;20196;-95
2021/12/13 11:30:18;;;;;;;34.25;17.80;;;9.60;99.90;;;;;;4967556;29;20245;-92
2021/12/13 11:32:56;;;;;;;33.95;20.08;;;9.60;99.90;;;;;;4961313;29;20264;-93
2021/12/13 11:36:05;;;;;;;36.08;19.77;;;9.60;99.90;;;;;;4957967;28;20211;-92
2021/12/13 11:39:09;;;;;;;33.60;19.05;;;9.50;99.90;;;;;;4970681;29;20522;-94
2021/12/13 11:42:06;;;;;;;31.83;17.80;;;9.50;99.90;;;;;;4954949;29;20281;-93
2021/12/13 11:45:16;;;;;;;29.80;19.00;;;9.40;99.90;;;;;;4945018;29;20234;-93
2021/12/13 11:48:03;;;;;;;32.87;18.77;;;9.50;99.90;;;;;;4939274;29;20190;-91
2021/12/13 11:50:50;;;;;;;30.63;18.93;;;9.50;99.90;;;;;;4939337;29;20210;-92
2021/12/13 11:53:53;;;;;;;33.50;19.43;;;9.50;99.90;;;;;;4939404;29;20524;-92
2021/12/13 11:56:50;;;;;;;33.43;18.97;;;9.50;99.90;;;;;;4939095;29;20194;-92
2021/12/13 11:59:44;;;;;;;34.17;18.90;;;9.50;99.90;;;;;;4939279;29;20272;-92
2021/12/13 12:02:40;;;;;;;30.65;17.55;;;9.50;99.90;;;;;;4939706;29;20190;-95
2021/12/13 12:05:31;;;;;;;30.63;18.63;;;9.50;99.90;;;;;;4938886;29;20185;-92
2021/12/13 12:08:08;;;;;;;31.53;18.47;;;9.60;99.90;;;;;;4939590;29;20181;-93
2021/12/13 12:10:45;;;;;;;32.58;19.05;;;9.50;99.90;;;;;;4944100;29;20311;-92
2021/12/13 12:13:19;;;;;;;31.23;18.38;;;9.50;99.90;;;;;;4960133;29;20507;-92
2021/12/13 12:15:47;;;;;;;29.70;18.40;;;9.60;99.90;;;;;;4958218;29;20168;-94
2021/12/13 12:18:20;;;;;;;31.97;18.50;;;9.50;99.90;;;;;;4943095;29;20695;-92
2021/12/13 12:20:50;;;;;;;32.60;19.63;;;9.60;99.90;;;;;;4958678;29;20177;-93
2021/12/13 12:23:32;;;;;;;29.70;18.50;;;9.60;99.90;;;;;;4958936;29;20188;-92
2021/12/13 12:26:00;;;;;;;30.40;18.93;;;9.60;99.90;;;;;;4959105;29;20574;-93
2021/12/13 12:28:30;;;;;;;30.85;18.58;;;9.60;99.90;;;;;;4958535;29;20186;-93
2021/12/13 12:30:58;;;;;;;28.30;18.27;;;9.70;99.90;;;;;;4958595;29;20189;-92
2021/12/13 12:33:37;;;;;;;28.60;18.07;;;9.70;99.90;;;;;;4958251;29;20181;-92
2021/12/13 12:36:07;;;;;;;34.35;18.92;;;9.70;99.90;;;;;;4956556;29;20185;-91
2021/12/13 12:39:01;;;;;;;31.95;19.77;;;9.70;99.90;;;;;;4956556;29;20223;-92
2021/12/13 12:41:43;;;;;;;29.70;19.43;;;9.70;99.90;;;;;;4956570;29;20608;-91
2021/12/13 12:44:17;;;;;;;34.42;19.63;;;9.60;99.90;;;;;;4956340;29;20201;-94
2021/12/13 12:46:43;;;;;;;32.85;19.30;;;9.60;99.90;;;;;;4957717;28;20248;-91
2021/12/13 12:49:16;;;;;;;29.73;18.75;;;9.70;99.90;;;;;;4956246;29;20304;-91
2021/12/13 12:51:42;;;;;;;29.97;19.60;;;9.70;99.90;;;;;;4957230;29;20264;-91
2021/12/13 12:54:13;;;;;;;28.15;19.10;;;9.60;99.90;;;;;;4958796;29;20177;-91
2021/12/13 12:56:48;;;;;;;32.30;19.30;;;9.60;99.90;;;;;;4956672;29;20212;-91
2021/12/13 12:59:13;;;;;;;30.92;20.08;;;9.60;99.90;;;;;;4956463;29;20670;-92
2021/12/13 13:01:45;;;;;;;31.60;19.07;;;9.60;99.90;;;;;;4955852;29;20200;-92
2021/12/13 13:04:22;;;;;;;34.05;19.23;;;9.60;99.90;;;;;;4956553;29;20185;-92
2021/12/13 13:07:08;;;;;;;33.67;19.20;;;9.50;99.90;;;;;;4955360;29;20172;-92
2021/12/13 13:09:55;;;;;;;31.00;19.43;;;9.50;99.90;;;;;;4956311;29;20213;-92
2021/12/13 13:12:32;;;;;;;28.83;19.30;;;9.50;99.90;;;;;;4944167;28;20197;-92
2021/12/13 13:15:10;;;;;;;31.20;18.97;;;9.50;99.90;;;;;;4957191;29;20293;-92
2021/12/13 13:17:45;;;;;;;31.88;19.45;;;9.50;99.90;;;;;;4958302;29;20177;-93
2021/12/13 13:20:42;;;;;;;29.73;19.10;;;9.50;99.90;;;;;;4958106;29;20186;-91
2021/12/13 13:23:10;;;;;;;27.03;18.47;;;9.40;99.90;;;;;;4952824;29;20221;-91
2021/12/13 13:25:43;;;;;;;28.60;18.47;;;9.40;99.90;;;;;;4957361;29;20184;-91